sensor_id;sensor_type;location;lat;lon;timestamp;temperature;humidity
20155;DHT22;10238;49.556;10.956;2023-06-14T00:02:22;16.00;92.00
20155;DHT22;10238;49.556;10.956;2023-06-14T00:05:15;15.90;92.10
20155;DHT22;10238;49.556;10.956;2023-06-14T00:08:05;15.90;92.20
20155;DHT22;10238;49.556;10.956;2023-06-14T00:10:54;15.90;92.40
20155;DHT22;10238;49.556;10.956;2023-06-14T00:13:43;15.80;92.30
20155;DHT22;10238;49.556;10.956;2023-06-14T00:16:32;15.80;92.50
20155;DHT22;10238;49.556;10.956;2023-06-14T00:19:25;15.70;92.60
20155;DHT22;10238;49.556;10.956;2023-06-14T00:22:16;15.70;92.80
20155;DHT22;10238;49.556;10.956;2023-06-14T00:25:05;15.60;93.00
20155;DHT22;10238;49.556;10.956;2023-06-14T00:28:14;15.60;93.10
20155;DHT22;10238;49.556;10.956;2023-06-14T00:31:03;15.60;93.30
20155;DHT22;10238;49.556;10.956;2023-06-14T00:33:51;15.50;93.40
20155;DHT22;10238;49.556;10.956;2023-06-14T00:36:42;15.50;93.50
20155;DHT22;10238;49.556;10.956;2023-06-14T00:39:32;15.40;93.60
20155;DHT22;10238;49.556;10.956;2023-06-14T00:42:24;15.40;93.70
20155;DHT22;10238;49.556;10.956;2023-06-14T00:45:13;15.30;93.90
20155;DHT22;10238;49.556;10.956;2023-06-14T00:48:04;15.30;94.00
20155;DHT22;10238;49.556;10.956;2023-06-14T00:50:57;15.30;94.10
20155;DHT22;10238;49.556;10.956;2023-06-14T00:53:48;15.20;94.20
20155;DHT22;10238;49.556;10.956;2023-06-14T00:56:40;15.10;94.50
20155;DHT22;10238;49.556;10.956;2023-06-14T00:59:31;15.00;94.60
20155;DHT22;10238;49.556;10.956;2023-06-14T01:02:25;15.00;94.80
20155;DHT22;10238;49.556;10.956;2023-06-14T01:05:16;14.90;94.90
20155;DHT22;10238;49.556;10.956;2023-06-14T01:08:14;14.80;95.10
20155;DHT22;10238;49.556;10.956;2023-06-14T01:11:14;14.80;95.20
20155;DHT22;10238;49.556;10.956;2023-06-14T01:14:09;14.70;95.40
20155;DHT22;10238;49.556;10.956;2023-06-14T01:17:01;14.70;95.60
20155;DHT22;10238;49.556;10.956;2023-06-14T01:19:52;14.60;95.70
20155;DHT22;10238;49.556;10.956;2023-06-14T01:22:50;14.60;96.00
20155;DHT22;10238;49.556;10.956;2023-06-14T01:25:40;14.50;96.10
20155;DHT22;10238;49.556;10.956;2023-06-14T01:28:33;14.40;96.30
20155;DHT22;10238;49.556;10.956;2023-06-14T01:31:25;14.40;96.40
20155;DHT22;10238;49.556;10.956;2023-06-14T01:34:16;14.40;96.60
20155;DHT22;10238;49.556;10.956;2023-06-14T01:37:07;14.30;96.80
20155;DHT22;10238;49.556;10.956;2023-06-14T01:40:01;14.20;96.80
20155;DHT22;10238;49.556;10.956;2023-06-14T01:42:52;14.20;97.00
20155;DHT22;10238;49.556;10.956;2023-06-14T01:45:42;14.20;97.30
20155;DHT22;10238;49.556;10.956;2023-06-14T01:48:35;14.10;97.50
20155;DHT22;10238;49.556;10.956;2023-06-14T01:51:25;14.10;97.70
20155;DHT22;10238;49.556;10.956;2023-06-14T01:54:21;14.00;97.90
20155;DHT22;10238;49.556;10.956;2023-06-14T01:57:14;14.00;98.00
20155;DHT22;10238;49.556;10.956;2023-06-14T02:00:03;13.90;98.30
20155;DHT22;10238;49.556;10.956;2023-06-14T02:02:57;13.80;98.40
20155;DHT22;10238;49.556;10.956;2023-06-14T02:05:47;13.80;98.60
20155;DHT22;10238;49.556;10.956;2023-06-14T02:08:36;13.80;98.80
20155;DHT22;10238;49.556;10.956;2023-06-14T02:11:30;13.90;98.80
20155;DHT22;10238;49.556;10.956;2023-06-14T02:14:20;14.00;98.50
20155;DHT22;10238;49.556;10.956;2023-06-14T02:17:15;14.00;98.40
20155;DHT22;10238;49.556;10.956;2023-06-14T02:20:04;14.00;98.50
20155;DHT22;10238;49.556;10.956;2023-06-14T02:22:57;13.90;98.50
20155;DHT22;10238;49.556;10.956;2023-06-14T02:25:49;13.80;98.70
20155;DHT22;10238;49.556;10.956;2023-06-14T02:28:37;13.80;98.80
20155;DHT22;10238;49.556;10.956;2023-06-14T02:31:27;13.70;98.90
20155;DHT22;10238;49.556;10.956;2023-06-14T02:34:16;13.50;99.20
20155;DHT22;10238;49.556;10.956;2023-06-14T02:37:07;13.50;99.50
20155;DHT22;10238;49.556;10.956;2023-06-14T02:39:58;13.40;99.80
20155;DHT22;10238;49.556;10.956;2023-06-14T02:42:47;13.30;99.90
20155;DHT22;10238;49.556;10.956;2023-06-14T02:45:36;13.40;99.90
20155;DHT22;10238;49.556;10.956;2023-06-14T02:48:27;13.40;99.90
20155;DHT22;10238;49.556;10.956;2023-06-14T02:51:15;13.40;99.90
20155;DHT22;10238;49.556;10.956;2023-06-14T02:54:04;13.30;99.90
20155;DHT22;10238;49.556;10.956;2023-06-14T02:56:57;13.30;99.90
20155;DHT22;10238;49.556;10.956;2023-06-14T02:59:45;13.20;99.90
20155;DHT22;10238;49.556;10.956;2023-06-14T03:02:33;13.10;99.90
20155;DHT22;10238;49.556;10.956;2023-06-14T03:05:30;13.10;99.90
20155;DHT22;10238;49.556;10.956;2023-06-14T03:08:21;13.10;99.90
20155;DHT22;10238;49.556;10.956;2023-06-14T03:11:13;13.10;99.90
20155;DHT22;10238;49.556;10.956;2023-06-14T03:14:05;12.90;99.90
20155;DHT22;10238;49.556;10.956;2023-06-14T03:16:55;12.90;99.90
20155;DHT22;10238;49.556;10.956;2023-06-14T03:19:44;12.80;99.90
20155;DHT22;10238;49.556;10.956;2023-06-14T03:22:34;12.80;99.90
20155;DHT22;10238;49.556;10.956;2023-06-14T03:25:27;12.70;99.90
20155;DHT22;10238;49.556;10.956;2023-06-14T03:28:16;12.70;99.90
20155;DHT22;10238;49.556;10.956;2023-06-14T03:31:06;12.70;99.90
20155;DHT22;10238;49.556;10.956;2023-06-14T03:33:55;12.60;99.90
20155;DHT22;10238;49.556;10.956;2023-06-14T03:36:48;12.60;99.90
20155;DHT22;10238;49.556;10.956;2023-06-14T03:39:40;12.60;99.90
20155;DHT22;10238;49.556;10.956;2023-06-14T03:42:33;12.60;99.90
20155;DHT22;10238;49.556;10.956;2023-06-14T03:45:24;12.60;99.90
20155;DHT22;10238;49.556;10.956;2023-06-14T03:48:12;12.60;99.90
20155;DHT22;10238;49.556;10.956;2023-06-14T03:51:03;12.60;99.90
20155;DHT22;10238;49.556;10.956;2023-06-14T03:53:54;12.50;99.90
20155;DHT22;10238;49.556;10.956;2023-06-14T03:57:12;12.50;99.90
20155;DHT22;10238;49.556;10.956;2023-06-14T04:00:03;12.50;99.90
20155;DHT22;10238;49.556;10.956;2023-06-14T04:02:54;12.50;99.90
20155;DHT22;10238;49.556;10.956;2023-06-14T04:05:48;12.50;99.90
20155;DHT22;10238;49.556;10.956;2023-06-14T04:08:38;12.50;99.90
20155;DHT22;10238;49.556;10.956;2023-06-14T04:11:30;12.50;99.90
20155;DHT22;10238;49.556;10.956;2023-06-14T04:14:25;12.50;99.90
20155;DHT22;10238;49.556;10.956;2023-06-14T04:17:19;12.60;99.90
20155;DHT22;10238;49.556;10.956;2023-06-14T04:20:15;12.70;99.90
20155;DHT22;10238;49.556;10.956;2023-06-14T04:23:17;12.70;99.90
20155;DHT22;10238;49.556;10.956;2023-06-14T04:26:11;12.80;99.90
20155;DHT22;10238;49.556;10.956;2023-06-14T04:29:00;12.90;99.90
20155;DHT22;10238;49.556;10.956;2023-06-14T04:31:50;12.80;99.90
20155;DHT22;10238;49.556;10.956;2023-06-14T04:34:42;12.90;99.90
20155;DHT22;10238;49.556;10.956;2023-06-14T04:37:31;13.00;99.90
20155;DHT22;10238;49.556;10.956;2023-06-14T04:40:22;13.00;99.90
20155;DHT22;10238;49.556;10.956;2023-06-14T04:43:11;13.10;99.90
20155;DHT22;10238;49.556;10.956;2023-06-14T04:46:04;13.10;99.90
20155;DHT22;10238;49.556;10.956;2023-06-14T04:49:14;13.20;99.90
20155;DHT22;10238;49.556;10.956;2023-06-14T04:52:05;13.20;99.90
20155;DHT22;10238;49.556;10.956;2023-06-14T04:54:57;13.20;99.90
20155;DHT22;10238;49.556;10.956;2023-06-14T04:58:18;13.30;99.90
20155;DHT22;10238;49.556;10.956;2023-06-14T05:01:06;13.30;99.90
20155;DHT22;10238;49.556;10.956;2023-06-14T05:04:00;13.50;99.90
20155;DHT22;10238;49.556;10.956;2023-06-14T05:06:52;13.50;99.90
20155;DHT22;10238;49.556;10.956;2023-06-14T05:09:43;13.60;99.90
20155;DHT22;10238;49.556;10.956;2023-06-14T05:12:33;13.70;99.90
20155;DHT22;10238;49.556;10.956;2023-06-14T05:15:21;13.80;99.90
20155;DHT22;10238;49.556;10.956;2023-06-14T05:18:18;13.90;99.90
20155;DHT22;10238;49.556;10.956;2023-06-14T05:21:06;14.00;99.90
20155;DHT22;10238;49.556;10.956;2023-06-14T05:23:57;14.10;99.90
20155;DHT22;10238;49.556;10.956;2023-06-14T05:26:46;14.20;99.90
20155;DHT22;10238;49.556;10.956;2023-06-14T05:29:52;14.20;99.90
20155;DHT22;10238;49.556;10.956;2023-06-14T05:32:56;14.30;99.90
20155;DHT22;10238;49.556;10.956;2023-06-14T05:35:47;14.30;99.90
20155;DHT22;10238;49.556;10.956;2023-06-14T05:38:37;14.40;99.90
20155;DHT22;10238;49.556;10.956;2023-06-14T05:41:35;14.40;99.90
20155;DHT22;10238;49.556;10.956;2023-06-14T05:44:35;14.50;99.90
20155;DHT22;10238;49.556;10.956;2023-06-14T05:47:24;14.50;99.90
20155;DHT22;10238;49.556;10.956;2023-06-14T05:50:15;14.60;99.90
20155;DHT22;10238;49.556;10.956;2023-06-14T05:53:04;14.70;99.90
20155;DHT22;10238;49.556;10.956;2023-06-14T05:55:54;14.70;99.90
20155;DHT22;10238;49.556;10.956;2023-06-14T05:58:45;14.70;99.90
20155;DHT22;10238;49.556;10.956;2023-06-14T06:01:35;14.80;99.90
20155;DHT22;10238;49.556;10.956;2023-06-14T06:04:31;14.90;99.90
20155;DHT22;10238;49.556;10.956;2023-06-14T06:07:25;15.00;99.90
20155;DHT22;10238;49.556;10.956;2023-06-14T06:10:24;15.10;99.90
20155;DHT22;10238;49.556;10.956;2023-06-14T06:13:14;15.40;99.90
20155;DHT22;10238;49.556;10.956;2023-06-14T06:16:04;15.70;99.90
20155;DHT22;10238;49.556;10.956;2023-06-14T06:18:53;16.00;99.90
20155;DHT22;10238;49.556;10.956;2023-06-14T06:21:45;16.20;99.90
20155;DHT22;10238;49.556;10.956;2023-06-14T06:24:34;16.50;99.90
20155;DHT22;10238;49.556;10.956;2023-06-14T06:27:23;16.70;99.90
20155;DHT22;10238;49.556;10.956;2023-06-14T06:30:13;17.00;99.90
20155;DHT22;10238;49.556;10.956;2023-06-14T06:33:13;17.30;99.90
20155;DHT22;10238;49.556;10.956;2023-06-14T06:36:12;17.70;99.90
20155;DHT22;10238;49.556;10.956;2023-06-14T06:39:02;17.90;99.90
20155;DHT22;10238;49.556;10.956;2023-06-14T06:41:57;18.20;99.90
20155;DHT22;10238;49.556;10.956;2023-06-14T06:44:45;18.50;99.90
20155;DHT22;10238;49.556;10.956;2023-06-14T06:47:35;18.70;99.90
20155;DHT22;10238;49.556;10.956;2023-06-14T06:50:26;18.90;99.90
20155;DHT22;10238;49.556;10.956;2023-06-14T06:53:22;19.30;99.40
20155;DHT22;10238;49.556;10.956;2023-06-14T06:56:26;19.50;99.00
20155;DHT22;10238;49.556;10.956;2023-06-14T06:59:16;19.60;98.60
20155;DHT22;10238;49.556;10.956;2023-06-14T07:02:07;19.70;98.30
20155;DHT22;10238;49.556;10.956;2023-06-14T07:04:58;19.90;98.20
20155;DHT22;10238;49.556;10.956;2023-06-14T07:07:54;19.80;97.00
20155;DHT22;10238;49.556;10.956;2023-06-14T07:10:53;20.00;98.00
20155;DHT22;10238;49.556;10.956;2023-06-14T07:13:42;20.40;97.60
20155;DHT22;10238;49.556;10.956;2023-06-14T07:16:36;20.60;97.40
20155;DHT22;10238;49.556;10.956;2023-06-14T07:19:27;21.00;96.20
20155;DHT22;10238;49.556;10.956;2023-06-14T07:22:19;21.00;96.10
20155;DHT22;10238;49.556;10.956;2023-06-14T07:25:12;21.50;96.00
20155;DHT22;10238;49.556;10.956;2023-06-14T07:28:06;22.00;95.50
20155;DHT22;10238;49.556;10.956;2023-06-14T07:30:58;22.30;95.20
20155;DHT22;10238;49.556;10.956;2023-06-14T07:33:54;22.40;94.80
20155;DHT22;10238;49.556;10.956;2023-06-14T07:36:44;22.50;94.70
20155;DHT22;10238;49.556;10.956;2023-06-14T07:39:35;22.50;94.40
20155;DHT22;10238;49.556;10.956;2023-06-14T07:42:25;22.50;94.10
20155;DHT22;10238;49.556;10.956;2023-06-14T07:45:14;22.50;94.70
20155;DHT22;10238;49.556;10.956;2023-06-14T07:48:06;22.80;94.30
20155;DHT22;10238;49.556;10.956;2023-06-14T07:50:55;22.90;94.10
20155;DHT22;10238;49.556;10.956;2023-06-14T07:53:44;23.10;92.70
20155;DHT22;10238;49.556;10.956;2023-06-14T07:56:33;23.30;93.30
20155;DHT22;10238;49.556;10.956;2023-06-14T07:59:25;23.90;92.80
20155;DHT22;10238;49.556;10.956;2023-06-14T08:02:15;24.00;91.30
20155;DHT22;10238;49.556;10.956;2023-06-14T08:05:06;23.90;92.70
20155;DHT22;10238;49.556;10.956;2023-06-14T08:08:00;24.10;91.80
20155;DHT22;10238;49.556;10.956;2023-06-14T08:10:51;24.40;92.10
20155;DHT22;10238;49.556;10.956;2023-06-14T08:13:40;24.90;91.20
20155;DHT22;10238;49.556;10.956;2023-06-14T08:16:34;25.10;90.70
20155;DHT22;10238;49.556;10.956;2023-06-14T08:19:25;25.20;90.30
20155;DHT22;10238;49.556;10.956;2023-06-14T08:22:16;25.30;90.00
20155;DHT22;10238;49.556;10.956;2023-06-14T08:25:08;25.60;88.70
20155;DHT22;10238;49.556;10.956;2023-06-14T08:28:02;25.90;88.30
20155;DHT22;10238;49.556;10.956;2023-06-14T08:30:53;26.20;87.00
20155;DHT22;10238;49.556;10.956;2023-06-14T08:33:57;26.20;87.30
20155;DHT22;10238;49.556;10.956;2023-06-14T08:36:53;26.10;87.70
20155;DHT22;10238;49.556;10.956;2023-06-14T08:39:42;25.60;87.50
20155;DHT22;10238;49.556;10.956;2023-06-14T08:42:39;25.70;89.00
20155;DHT22;10238;49.556;10.956;2023-06-14T08:45:35;25.80;88.90
20155;DHT22;10238;49.556;10.956;2023-06-14T08:48:39;26.00;83.50
20155;DHT22;10238;49.556;10.956;2023-06-14T08:51:36;26.10;85.20
20155;DHT22;10238;49.556;10.956;2023-06-14T08:54:31;26.60;88.00
20155;DHT22;10238;49.556;10.956;2023-06-14T08:57:33;27.00;82.70
20155;DHT22;10238;49.556;10.956;2023-06-14T09:00:27;26.00;80.40
20155;DHT22;10238;49.556;10.956;2023-06-14T09:03:38;25.90;85.20
20155;DHT22;10238;49.556;10.956;2023-06-14T09:06:51;26.10;82.30
20155;DHT22;10238;49.556;10.956;2023-06-14T09:09:41;25.50;87.30
20155;DHT22;10238;49.556;10.956;2023-06-14T09:12:52;25.80;83.90
20155;DHT22;10238;49.556;10.956;2023-06-14T09:15:42;25.70;85.20
20155;DHT22;10238;49.556;10.956;2023-06-14T09:18:35;25.40;86.10
20155;DHT22;10238;49.556;10.956;2023-06-14T09:21:49;25.80;86.80
20155;DHT22;10238;49.556;10.956;2023-06-14T09:24:46;26.00;85.40
20155;DHT22;10238;49.556;10.956;2023-06-14T09:27:36;26.00;85.50
20155;DHT22;10238;49.556;10.956;2023-06-14T09:30:28;26.10;84.80
20155;DHT22;10238;49.556;10.956;2023-06-14T09:33:18;26.10;80.60
20155;DHT22;10238;49.556;10.956;2023-06-14T09:36:11;26.10;83.10
20155;DHT22;10238;49.556;10.956;2023-06-14T09:39:08;26.10;82.60
20155;DHT22;10238;49.556;10.956;2023-06-14T09:42:00;26.00;82.20
20155;DHT22;10238;49.556;10.956;2023-06-14T09:44:50;25.90;83.70
20155;DHT22;10238;49.556;10.956;2023-06-14T09:47:46;25.90;83.60
20155;DHT22;10238;49.556;10.956;2023-06-14T09:50:51;25.90;82.80
20155;DHT22;10238;49.556;10.956;2023-06-14T09:53:59;25.90;83.10
20155;DHT22;10238;49.556;10.956;2023-06-14T09:56:53;26.00;82.10
20155;DHT22;10238;49.556;10.956;2023-06-14T09:59:45;25.90;81.00
20155;DHT22;10238;49.556;10.956;2023-06-14T10:02:49;25.90;80.30
20155;DHT22;10238;49.556;10.956;2023-06-14T10:05:52;26.10;81.00
20155;DHT22;10238;49.556;10.956;2023-06-14T10:08:50;25.40;80.50
20155;DHT22;10238;49.556;10.956;2023-06-14T10:11:43;25.00;81.10
20155;DHT22;10238;49.556;10.956;2023-06-14T10:14:38;24.90;82.30
20155;DHT22;10238;49.556;10.956;2023-06-14T10:17:43;24.80;83.30
20155;DHT22;10238;49.556;10.956;2023-06-14T10:20:51;24.60;80.20
20155;DHT22;10238;49.556;10.956;2023-06-14T10:23:54;24.60;83.30
20155;DHT22;10238;49.556;10.956;2023-06-14T10:26:58;24.60;82.40
20155;DHT22;10238;49.556;10.956;2023-06-14T10:30:08;24.90;83.30
20155;DHT22;10238;49.556;10.956;2023-06-14T10:33:05;25.10;82.90
20155;DHT22;10238;49.556;10.956;2023-06-14T10:36:11;25.20;81.30
20155;DHT22;10238;49.556;10.956;2023-06-14T10:39:29;25.30;81.60
20155;DHT22;10238;49.556;10.956;2023-06-14T10:42:18;25.50;81.80
20155;DHT22;10238;49.556;10.956;2023-06-14T10:45:13;25.60;81.30
20155;DHT22;10238;49.556;10.956;2023-06-14T10:48:03;25.80;80.90
20155;DHT22;10238;49.556;10.956;2023-06-14T10:51:01;25.90;80.50
20155;DHT22;10238;49.556;10.956;2023-06-14T10:54:03;25.90;79.70
20155;DHT22;10238;49.556;10.956;2023-06-14T10:56:59;26.00;80.50
20155;DHT22;10238;49.556;10.956;2023-06-14T10:59:48;26.20;80.20
20155;DHT22;10238;49.556;10.956;2023-06-14T11:03:06;26.20;78.90
20155;DHT22;10238;49.556;10.956;2023-06-14T11:06:22;26.30;79.30
20155;DHT22;10238;49.556;10.956;2023-06-14T11:13:00;26.30;79.40
20155;DHT22;10238;49.556;10.956;2023-06-14T11:15:51;26.40;78.20
20155;DHT22;10238;49.556;10.956;2023-06-14T11:18:56;26.60;77.00
20155;DHT22;10238;49.556;10.956;2023-06-14T11:21:48;26.60;78.50
20155;DHT22;10238;49.556;10.956;2023-06-14T11:24:38;26.70;78.00
20155;DHT22;10238;49.556;10.956;2023-06-14T11:27:27;26.80;77.10
20155;DHT22;10238;49.556;10.956;2023-06-14T11:30:19;26.70;77.20
20155;DHT22;10238;49.556;10.956;2023-06-14T11:33:10;26.80;77.60
20155;DHT22;10238;49.556;10.956;2023-06-14T11:36:05;27.00;79.00
20155;DHT22;10238;49.556;10.956;2023-06-14T11:38:59;26.80;76.50
20155;DHT22;10238;49.556;10.956;2023-06-14T11:42:04;26.60;78.00
20155;DHT22;10238;49.556;10.956;2023-06-14T11:44:55;26.60;78.60
20155;DHT22;10238;49.556;10.956;2023-06-14T11:47:55;26.60;77.90
20155;DHT22;10238;49.556;10.956;2023-06-14T11:50:50;26.60;76.20
20155;DHT22;10238;49.556;10.956;2023-06-14T11:53:42;26.50;77.50
20155;DHT22;10238;49.556;10.956;2023-06-14T11:56:47;26.40;74.00
20155;DHT22;10238;49.556;10.956;2023-06-14T11:59:39;26.40;78.60
20155;DHT22;10238;49.556;10.956;2023-06-14T12:02:31;27.30;77.80
20155;DHT22;10238;49.556;10.956;2023-06-14T12:05:21;27.50;77.70
20155;DHT22;10238;49.556;10.956;2023-06-14T12:08:11;27.40;76.00
20155;DHT22;10238;49.556;10.956;2023-06-14T12:11:20;27.20;76.50
20155;DHT22;10238;49.556;10.956;2023-06-14T12:14:10;26.90;77.10
20155;DHT22;10238;49.556;10.956;2023-06-14T12:17:10;27.00;77.00
20155;DHT22;10238;49.556;10.956;2023-06-14T12:19:59;27.40;75.70
20155;DHT22;10238;49.556;10.956;2023-06-14T12:23:03;27.60;76.90
20155;DHT22;10238;49.556;10.956;2023-06-14T12:26:00;28.20;74.80
20155;DHT22;10238;49.556;10.956;2023-06-14T12:28:53;28.20;75.70
20155;DHT22;10238;49.556;10.956;2023-06-14T12:31:43;28.10;76.40
20155;DHT22;10238;49.556;10.956;2023-06-14T12:34:32;28.20;74.80
20155;DHT22;10238;49.556;10.956;2023-06-14T12:37:36;28.20;74.70
20155;DHT22;10238;49.556;10.956;2023-06-14T12:40:41;28.80;74.80
20155;DHT22;10238;49.556;10.956;2023-06-14T12:43:33;29.40;74.60
20155;DHT22;10238;49.556;10.956;2023-06-14T12:46:32;29.60;72.60
20155;DHT22;10238;49.556;10.956;2023-06-14T12:49:23;29.90;71.00
20155;DHT22;10238;49.556;10.956;2023-06-14T12:52:14;29.30;69.70
20155;DHT22;10238;49.556;10.956;2023-06-14T12:55:08;29.00;74.10
20155;DHT22;10238;49.556;10.956;2023-06-14T12:57:58;28.40;65.40
20155;DHT22;10238;49.556;10.956;2023-06-14T13:00:47;28.20;74.90
20155;DHT22;10238;49.556;10.956;2023-06-14T13:03:38;28.40;75.20
20155;DHT22;10238;49.556;10.956;2023-06-14T13:06:28;29.00;74.70
20155;DHT22;10238;49.556;10.956;2023-06-14T13:09:32;29.30;72.00
20155;DHT22;10238;49.556;10.956;2023-06-14T13:12:22;29.40;73.10
20155;DHT22;10238;49.556;10.956;2023-06-14T13:15:12;29.30;73.40
20155;DHT22;10238;49.556;10.956;2023-06-14T13:18:00;29.30;73.30
20155;DHT22;10238;49.556;10.956;2023-06-14T13:20:51;29.30;73.00
20155;DHT22;10238;49.556;10.956;2023-06-14T13:23:39;29.20;68.90
20155;DHT22;10238;49.556;10.956;2023-06-14T13:26:37;28.90;72.80
20155;DHT22;10238;49.556;10.956;2023-06-14T13:29:28;28.90;73.70
20155;DHT22;10238;49.556;10.956;2023-06-14T13:32:20;28.90;73.50
20155;DHT22;10238;49.556;10.956;2023-06-14T13:35:10;28.80;73.80
20155;DHT22;10238;49.556;10.956;2023-06-14T13:38:09;28.80;73.90
20155;DHT22;10238;49.556;10.956;2023-06-14T13:41:03;28.80;73.20
20155;DHT22;10238;49.556;10.956;2023-06-14T13:43:55;29.20;73.30
20155;DHT22;10238;49.556;10.956;2023-06-14T13:46:44;29.30;73.20
20155;DHT22;10238;49.556;10.956;2023-06-14T13:49:35;30.00;73.00
20155;DHT22;10238;49.556;10.956;2023-06-14T13:52:26;30.00;71.60
20155;DHT22;10238;49.556;10.956;2023-06-14T13:55:19;29.60;70.30
20155;DHT22;10238;49.556;10.956;2023-06-14T13:58:27;29.00;70.70
20155;DHT22;10238;49.556;10.956;2023-06-14T14:01:27;28.50;70.00
20155;DHT22;10238;49.556;10.956;2023-06-14T14:04:15;28.40;71.10
20155;DHT22;10238;49.556;10.956;2023-06-14T14:07:09;28.30;73.50
20155;DHT22;10238;49.556;10.956;2023-06-14T14:09:59;28.10;70.20
20155;DHT22;10238;49.556;10.956;2023-06-14T14:12:55;28.10;72.60
20155;DHT22;10238;49.556;10.956;2023-06-14T14:15:44;28.00;68.80
20155;DHT22;10238;49.556;10.956;2023-06-14T14:18:33;26.20;66.90
20155;DHT22;10238;49.556;10.956;2023-06-14T14:21:23;26.20;71.90
20155;DHT22;10238;49.556;10.956;2023-06-14T14:24:11;25.90;67.30
20155;DHT22;10238;49.556;10.956;2023-06-14T14:27:00;26.20;71.60
20155;DHT22;10238;49.556;10.956;2023-06-14T14:29:53;27.10;73.00
20155;DHT22;10238;49.556;10.956;2023-06-14T14:32:44;28.10;73.90
20155;DHT22;10238;49.556;10.956;2023-06-14T14:35:34;29.00;74.80
20155;DHT22;10238;49.556;10.956;2023-06-14T14:38:26;29.00;65.10
20155;DHT22;10238;49.556;10.956;2023-06-14T14:41:15;29.00;75.80
20155;DHT22;10238;49.556;10.956;2023-06-14T14:44:04;29.20;72.10
20155;DHT22;10238;49.556;10.956;2023-06-14T14:47:05;29.30;72.30
20155;DHT22;10238;49.556;10.956;2023-06-14T14:49:55;29.40;67.50
20155;DHT22;10238;49.556;10.956;2023-06-14T14:52:45;29.40;72.40
20155;DHT22;10238;49.556;10.956;2023-06-14T14:55:34;29.50;72.70
20155;DHT22;10238;49.556;10.956;2023-06-14T14:58:37;29.50;70.60
20155;DHT22;10238;49.556;10.956;2023-06-14T15:01:26;29.50;71.70
20155;DHT22;10238;49.556;10.956;2023-06-14T15:04:17;29.40;71.80
20155;DHT22;10238;49.556;10.956;2023-06-14T15:07:08;29.30;70.90
20155;DHT22;10238;49.556;10.956;2023-06-14T15:09:57;29.50;70.40
20155;DHT22;10238;49.556;10.956;2023-06-14T15:12:48;29.70;68.90
20155;DHT22;10238;49.556;10.956;2023-06-14T15:15:38;29.50;68.90
20155;DHT22;10238;49.556;10.956;2023-06-14T15:18:30;29.50;69.00
20155;DHT22;10238;49.556;10.956;2023-06-14T15:21:23;29.30;71.90
20155;DHT22;10238;49.556;10.956;2023-06-14T15:24:18;29.20;69.90
20155;DHT22;10238;49.556;10.956;2023-06-14T15:27:29;29.30;71.40
20155;DHT22;10238;49.556;10.956;2023-06-14T15:30:18;30.00;72.10
20155;DHT22;10238;49.556;10.956;2023-06-14T15:33:22;30.40;70.70
20155;DHT22;10238;49.556;10.956;2023-06-14T15:36:10;30.60;71.20
20155;DHT22;10238;49.556;10.956;2023-06-14T15:39:03;30.80;69.20
20155;DHT22;10238;49.556;10.956;2023-06-14T15:41:51;31.10;66.00
20155;DHT22;10238;49.556;10.956;2023-06-14T15:44:41;31.50;69.10
20155;DHT22;10238;49.556;10.956;2023-06-14T15:47:29;31.80;70.00
20155;DHT22;10238;49.556;10.956;2023-06-14T15:50:32;31.50;69.00
20155;DHT22;10238;49.556;10.956;2023-06-14T15:53:24;31.40;68.90
20155;DHT22;10238;49.556;10.956;2023-06-14T15:56:18;30.90;67.30
20155;DHT22;10238;49.556;10.956;2023-06-14T15:59:07;30.80;68.90
20155;DHT22;10238;49.556;10.956;2023-06-14T16:01:58;31.10;68.10
20155;DHT22;10238;49.556;10.956;2023-06-14T16:04:49;31.60;67.70
20155;DHT22;10238;49.556;10.956;2023-06-14T16:07:41;31.80;66.70
20155;DHT22;10238;49.556;10.956;2023-06-14T16:10:32;31.70;67.10
20155;DHT22;10238;49.556;10.956;2023-06-14T16:13:23;31.90;66.90
20155;DHT22;10238;49.556;10.956;2023-06-14T16:16:13;32.00;65.60
20155;DHT22;10238;49.556;10.956;2023-06-14T16:19:02;32.10;65.40
20155;DHT22;10238;49.556;10.956;2023-06-14T16:22:09;32.40;65.40
20155;DHT22;10238;49.556;10.956;2023-06-14T16:24:59;32.50;63.80
20155;DHT22;10238;49.556;10.956;2023-06-14T16:27:52;32.70;64.70
20155;DHT22;10238;49.556;10.956;2023-06-14T16:31:05;32.80;64.00
20155;DHT22;10238;49.556;10.956;2023-06-14T16:33:59;32.80;64.00
20155;DHT22;10238;49.556;10.956;2023-06-14T16:37:00;32.40;61.80
20155;DHT22;10238;49.556;10.956;2023-06-14T16:39:53;32.10;63.40
20155;DHT22;10238;49.556;10.956;2023-06-14T16:42:42;31.90;64.10
20155;DHT22;10238;49.556;10.956;2023-06-14T16:45:39;31.70;63.60
20155;DHT22;10238;49.556;10.956;2023-06-14T16:48:30;31.60;64.80
20155;DHT22;10238;49.556;10.956;2023-06-14T16:51:20;31.60;65.10
20155;DHT22;10238;49.556;10.956;2023-06-14T16:54:10;31.60;64.20
20155;DHT22;10238;49.556;10.956;2023-06-14T16:56:59;31.60;64.60
20155;DHT22;10238;49.556;10.956;2023-06-14T16:59:48;31.60;63.90
20155;DHT22;10238;49.556;10.956;2023-06-14T17:02:37;31.50;63.80
20155;DHT22;10238;49.556;10.956;2023-06-14T17:05:29;31.40;63.40
20155;DHT22;10238;49.556;10.956;2023-06-14T17:08:17;31.60;63.80
20155;DHT22;10238;49.556;10.956;2023-06-14T17:11:11;31.60;64.30
20155;DHT22;10238;49.556;10.956;2023-06-14T17:14:01;31.50;64.00
20155;DHT22;10238;49.556;10.956;2023-06-14T17:16:55;31.40;64.40
20155;DHT22;10238;49.556;10.956;2023-06-14T17:19:49;31.20;64.60
20155;DHT22;10238;49.556;10.956;2023-06-14T17:22:40;31.10;64.30
20155;DHT22;10238;49.556;10.956;2023-06-14T17:25:31;30.80;63.70
20155;DHT22;10238;49.556;10.956;2023-06-14T17:28:19;30.40;64.40
20155;DHT22;10238;49.556;10.956;2023-06-14T17:31:11;30.00;65.30
20155;DHT22;10238;49.556;10.956;2023-06-14T17:34:03;29.80;65.70
20155;DHT22;10238;49.556;10.956;2023-06-14T17:37:00;29.50;66.10
20155;DHT22;10238;49.556;10.956;2023-06-14T17:39:55;29.10;65.90
20155;DHT22;10238;49.556;10.956;2023-06-14T17:42:48;28.70;65.70
20155;DHT22;10238;49.556;10.956;2023-06-14T17:45:38;28.40;67.40
20155;DHT22;10238;49.556;10.956;2023-06-14T17:48:34;28.20;67.30
20155;DHT22;10238;49.556;10.956;2023-06-14T17:51:26;28.00;66.90
20155;DHT22;10238;49.556;10.956;2023-06-14T17:54:25;27.80;66.10
20155;DHT22;10238;49.556;10.956;2023-06-14T17:57:16;27.50;66.30
20155;DHT22;10238;49.556;10.956;2023-06-14T18:00:08;27.20;67.00
20155;DHT22;10238;49.556;10.956;2023-06-14T18:02:59;26.90;66.90